Time;durP1;ratioP1;P1;durP2;ratioP2;P2;SDS_P1;SDS_P2;PMS_P1;PMS_P2;Temp;Humidity;BMP_temperature;BMP_pressure;BME280_temperature;BME280_humidity;BME280_pressure;Samples;Min_cycle;Max_cycle;Signal;HPM_P1;HPM_P2
2021/07/23 00:00:55;;;;;;;11.77;10.67;;;;;;;14.56;100.00;98162.38;4978557;28;20466;-69
2021/07/23 00:03:24;;;;;;;13.53;12.20;;;;;;;14.92;100.00;98164.25;4979241;28;20260;-70
2021/07/23 00:05:52;;;;;;;11.77;10.77;;;;;;;14.69;100.00;98173.22;4981758;28;20209;-71
2021/07/23 00:08:20;;;;;;;11.37;10.27;;;;;;;14.55;100.00;98166.88;4984825;28;20704;-70
2021/07/23 00:10:48;;;;;;;12.73;11.63;;;;;;;14.60;100.00;98166.34;4984084;28;20575;-69
2021/07/23 00:13:16;;;;;;;12.90;11.63;;;;;;;14.38;100.00;98160.91;4983177;28;20212;-71
2021/07/23 00:15:45;;;;;;;12.03;10.83;;;;;;;14.30;100.00;98171.69;4986331;28;20261;-69
2021/07/23 00:18:13;;;;;;;12.70;11.50;;;;;;;14.24;100.00;98170.56;4983683;28;20530;-72
2021/07/23 00:20:42;;;;;;;12.90;11.67;;;;;;;14.12;100.00;98172.84;4983343;28;20241;-70
2021/07/23 00:23:10;;;;;;;12.57;11.57;;;;;;;14.10;100.00;98166.06;4985519;28;20681;-68
2021/07/23 00:25:38;;;;;;;12.10;11.03;;;;;;;14.10;100.00;98166.88;4986299;28;20676;-70
2021/07/23 00:28:07;;;;;;;12.50;11.50;;;;;;;14.00;100.00;98167.13;4985525;28;20213;-71
2021/07/23 00:30:35;;;;;;;13.17;11.93;;;;;;;13.93;100.00;98163.53;4983674;28;20213;-69
2021/07/23 00:33:03;;;;;;;12.07;10.90;;;;;;;13.91;100.00;98165.56;4985097;28;20297;-70
2021/07/23 00:35:31;;;;;;;11.47;10.37;;;;;;;13.84;100.00;98162.81;4984778;28;20296;-70
2021/07/23 00:38:01;;;;;;;12.97;11.90;;;;;;;13.87;100.00;98164.28;4982433;28;20212;-69
2021/07/23 00:40:29;;;;;;;13.70;12.50;;;;;;;13.80;100.00;98161.50;4984251;28;20685;-69
2021/07/23 00:42:57;;;;;;;13.07;11.97;;;;;;;13.75;100.00;98163.88;4983429;28;20218;-71
2021/07/23 00:45:25;;;;;;;13.37;12.17;;;;;;;13.68;100.00;98160.28;4980533;28;20481;-71
2021/07/23 00:47:55;;;;;;;13.33;11.87;;;;;;;13.62;100.00;98158.34;4985399;28;20705;-70
2021/07/23 00:50:23;;;;;;;12.63;11.63;;;;;;;13.57;100.00;98167.69;4984323;28;20580;-70
2021/07/23 00:52:51;;;;;;;12.87;11.93;;;;;;;13.66;100.00;98156.97;4985650;28;20205;-70
2021/07/23 00:55:21;;;;;;;12.13;11.10;;;;;;;13.73;100.00;98163.22;4984654;28;20243;-69
2021/07/23 00:57:49;;;;;;;13.70;12.40;;;;;;;13.63;100.00;98155.47;4985254;28;20206;-71
2021/07/23 01:00:18;;;;;;;14.33;12.30;;;;;;;13.58;100.00;98152.53;4982076;28;20202;-69
2021/07/23 01:02:47;;;;;;;12.60;11.50;;;;;;;13.59;100.00;98152.38;4981741;28;20214;-68
2021/07/23 01:05:15;;;;;;;11.87;10.97;;;;;;;13.53;100.00;98152.25;4977481;28;20233;-72
2021/07/23 01:07:43;;;;;;;13.90;12.57;;;;;;;13.54;100.00;98154.75;4983539;28;20220;-71
2021/07/23 01:10:12;;;;;;;12.60;11.53;;;;;;;13.55;100.00;98151.06;4983469;28;20209;-70
2021/07/23 01:12:41;;;;;;;13.63;12.53;;;;;;;13.49;100.00;98162.44;4984693;28;20212;-70
2021/07/23 01:15:10;;;;;;;13.47;12.27;;;;;;;13.52;100.00;98158.59;4985950;28;20312;-71
2021/07/23 01:17:39;;;;;;;12.83;11.73;;;;;;;13.40;100.00;98150.16;4982510;28;20664;-70
2021/07/23 01:20:11;;;;;;;13.77;12.47;;;;;;;13.39;100.00;98152.00;4982921;28;20228;-69
2021/07/23 01:22:41;;;;;;;13.60;12.30;;;;;;;13.37;100.00;98155.84;4983167;28;20213;-70
2021/07/23 01:25:12;;;;;;;13.60;12.40;;;;;;;13.48;100.00;98149.31;4982744;28;20264;-70
2021/07/23 01:27:43;;;;;;;12.90;11.70;;;;;;;13.36;100.00;98140.88;4979614;28;20205;-69
2021/07/23 01:31:01;;;;;;;13.50;12.40;;;;;;;13.23;100.00;98136.97;4985207;28;20292;-70
2021/07/23 01:33:34;;;;;;;13.73;12.63;;;;;;;13.18;100.00;98137.50;4978033;28;20264;-69
2021/07/23 01:36:03;;;;;;;14.23;12.83;;;;;;;13.20;100.00;98133.84;4984415;28;20217;-70
2021/07/23 01:38:31;;;;;;;13.17;11.97;;;;;;;13.14;100.00;98124.75;4982910;28;20844;-70
2021/07/23 01:41:01;;;;;;;13.33;12.23;;;;;;;13.13;100.00;98136.41;4987044;28;20205;-71
2021/07/23 01:43:29;;;;;;;13.37;12.17;;;;;;;13.07;100.00;98129.94;4982017;28;20509;-67
2021/07/23 01:45:58;;;;;;;13.27;12.17;;;;;;;13.00;100.00;98135.13;4979474;28;20235;-70
2021/07/23 01:48:26;;;;;;;13.10;11.93;;;;;;;12.97;100.00;98134.66;4984235;28;20523;-72
2021/07/23 01:50:54;;;;;;;13.70;12.47;;;;;;;12.95;100.00;98131.34;4983383;28;20228;-70
2021/07/23 01:53:22;;;;;;;14.33;13.17;;;;;;;12.98;100.00;98139.81;4981711;28;20701;-71
2021/07/23 01:55:50;;;;;;;13.83;12.73;;;;;;;12.93;100.00;98142.16;4982168;28;20247;-71
2021/07/23 01:58:20;;;;;;;14.47;13.17;;;;;;;12.91;100.00;98138.84;4983285;28;20214;-70
2021/07/23 02:00:48;;;;;;;15.97;12.67;;;;;;;12.89;100.00;98138.19;4981766;28;20201;-70
2021/07/23 02:03:16;;;;;;;13.23;12.17;;;;;;;12.96;100.00;98141.81;4980759;28;20221;-71
2021/07/23 02:05:44;;;;;;;14.00;12.90;;;;;;;13.08;100.00;98138.75;4979066;28;20247;-70
2021/07/23 02:08:13;;;;;;;13.70;12.50;;;;;;;12.98;100.00;98144.31;4986860;28;20600;-70
2021/07/23 02:10:41;;;;;;;13.70;12.53;;;;;;;12.85;100.00;98140.38;4981836;28;20201;-72
2021/07/23 02:13:09;;;;;;;15.40;14.00;;;;;;;12.85;100.00;98137.72;4980579;28;20300;-70
2021/07/23 02:15:38;;;;;;;14.50;13.10;;;;;;;12.81;100.00;98133.75;4984364;28;20225;-68
2021/07/23 02:18:06;;;;;;;15.07;13.87;;;;;;;12.83;100.00;98142.38;4981943;28;20210;-69
2021/07/23 02:20:35;;;;;;;13.40;12.23;;;;;;;12.72;100.00;98125.00;4983559;28;20213;-70
2021/07/23 02:23:03;;;;;;;14.90;13.67;;;;;;;12.65;100.00;98128.53;4981003;28;20209;-71
2021/07/23 02:25:32;;;;;;;13.67;12.47;;;;;;;12.64;100.00;98132.19;4983806;28;20255;-71
2021/07/23 02:28:01;;;;;;;14.10;12.93;;;;;;;12.65;100.00;98129.34;4984088;28;20213;-70
2021/07/23 02:30:29;;;;;;;15.47;14.07;;;;;;;12.64;100.00;98129.53;4981170;28;20586;-69
2021/07/23 02:32:59;;;;;;;14.80;13.57;;;;;;;12.61;100.00;98125.38;4983515;28;20216;-70
2021/07/23 02:35:27;;;;;;;14.03;12.83;;;;;;;12.64;100.00;98127.69;4981147;28;20229;-68
2021/07/23 02:37:55;;;;;;;14.00;12.67;;;;;;;12.66;100.00;98130.19;4982679;28;20224;-72
2021/07/23 02:40:23;;;;;;;14.13;12.93;;;;;;;12.56;100.00;98133.91;4981559;28;20210;-72
2021/07/23 02:42:51;;;;;;;14.17;12.97;;;;;;;12.53;100.00;98125.44;4983221;28;20218;-71
2021/07/23 02:45:19;;;;;;;14.03;12.83;;;;;;;12.53;100.00;98136.06;4982165;28;20229;-70
2021/07/23 02:47:48;;;;;;;13.63;12.53;;;;;;;12.46;100.00;98133.25;4985199;28;20220;-71
2021/07/23 02:50:19;;;;;;;14.30;13.20;;;;;;;12.56;100.00;98128.56;4979660;28;20209;-72
2021/07/23 02:52:47;;;;;;;14.80;13.50;;;;;;;12.49;100.00;98124.13;4981988;28;20534;-71
2021/07/23 02:55:15;;;;;;;14.53;13.23;;;;;;;12.45;100.00;98126.28;4980686;28;20229;-71
2021/07/23 02:57:43;;;;;;;13.07;11.87;;;;;;;12.39;100.00;98129.63;4979495;28;20643;-72
2021/07/23 03:00:13;;;;;;;14.00;12.70;;;;;;;12.41;100.00;98123.16;4982407;28;20213;-71
2021/07/23 03:02:41;;;;;;;13.03;11.93;;;;;;;12.38;100.00;98125.31;4978719;28;20236;-71
2021/07/23 03:05:10;;;;;;;14.23;12.77;;;;;;;12.38;100.00;98122.66;4980486;28;20229;-71
2021/07/23 03:07:39;;;;;;;13.00;12.00;;;;;;;12.43;100.00;98123.81;4977895;28;20259;-69
2021/07/23 03:10:08;;;;;;;13.70;12.40;;;;;;;12.46;100.00;98114.66;4982651;28;20578;-72
2021/07/23 03:12:36;;;;;;;14.37;13.20;;;;;;;12.25;100.00;98116.06;4982500;28;20214;-72
2021/07/23 03:15:05;;;;;;;14.27;13.00;;;;;;;12.11;100.00;98109.66;4983833;28;20232;-73
2021/07/23 03:17:34;;;;;;;14.67;13.47;;;;;;;12.11;100.00;98109.66;4983225;28;20209;-72
2021/07/23 03:20:03;;;;;;;14.70;13.40;;;;;;;12.12;100.00;98107.81;4983091;28;20213;-71
2021/07/23 03:22:31;;;;;;;14.37;13.03;;;;;;;12.11;100.00;98106.16;4980634;28;20209;-72
2021/07/23 03:25:01;;;;;;;14.20;12.93;;;;;;;12.09;100.00;98103.69;4981133;28;20740;-72
2021/07/23 03:27:29;;;;;;;14.60;13.17;;;;;;;12.14;100.00;98106.66;4982833;28;20201;-73
2021/07/23 03:29:57;;;;;;;14.43;13.03;;;;;;;12.05;100.00;98101.53;4984098;28;20208;-69
2021/07/23 03:32:26;;;;;;;15.07;13.57;;;;;;;12.03;100.00;98112.34;4982470;28;20320;-72
2021/07/23 03:34:54;;;;;;;14.10;12.80;;;;;;;11.98;100.00;98114.63;4981497;28;20217;-71
2021/07/23 03:37:22;;;;;;;14.77;13.37;;;;;;;12.05;100.00;98112.16;4976857;28;20210;-70
2021/07/23 03:39:50;;;;;;;14.20;12.97;;;;;;;12.09;100.00;98111.66;4981314;28;20593;-71
2021/07/23 03:42:19;;;;;;;15.20;13.70;;;;;;;12.13;100.00;98109.47;4981043;28;20342;-71
2021/07/23 03:44:47;;;;;;;14.73;13.43;;;;;;;12.13;100.00;98106.84;4982316;28;20225;-71
2021/07/23 03:47:17;;;;;;;14.53;13.23;;;;;;;12.04;100.00;98102.53;4984722;28;20228;-72
2021/07/23 03:49:46;;;;;;;14.63;13.10;;;;;;;12.10;100.00;98094.72;4982505;28;20680;-72
2021/07/23 03:52:15;;;;;;;13.47;12.37;;;;;;;12.13;100.00;98096.22;4984297;28;20214;-72
2021/07/23 03:54:43;;;;;;;14.50;13.10;;;;;;;12.27;100.00;98102.59;4983600;28;20683;-71
2021/07/23 03:57:11;;;;;;;14.17;12.97;;;;;;;12.19;100.00;98099.97;4985321;28;20252;-71
2021/07/23 03:59:40;;;;;;;14.07;12.97;;;;;;;12.16;100.00;98101.16;4982066;28;20221;-70
2021/07/23 04:02:08;;;;;;;15.00;13.80;;;;;;;12.23;100.00;98098.63;4986673;28;20673;-72
2021/07/23 04:04:38;;;;;;;13.87;12.57;;;;;;;12.24;100.00;98095.81;4986854;28;20273;-73
2021/07/23 04:07:06;;;;;;;15.17;13.87;;;;;;;12.23;100.00;98094.16;4984983;28;20236;-72
2021/07/23 04:09:35;;;;;;;15.83;14.43;;;;;;;12.24;100.00;98103.78;4982987;28;20240;-71
2021/07/23 04:12:03;;;;;;;15.20;13.90;;;;;;;12.23;100.00;98093.31;4989209;28;20216;-71
2021/07/23 04:14:31;;;;;;;14.67;13.43;;;;;;;12.32;100.00;98099.44;4981215;28;20702;-71
2021/07/23 04:17:01;;;;;;;15.40;14.10;;;;;;;12.38;100.00;98096.94;4984907;28;20217;-71
2021/07/23 04:19:29;;;;;;;15.37;14.07;;;;;;;12.54;100.00;98104.00;4983839;28;20626;-73
2021/07/23 04:21:57;;;;;;;15.50;14.10;;;;;;;12.46;100.00;98098.69;4984742;28;20209;-72
2021/07/23 04:24:25;;;;;;;15.27;13.87;;;;;;;12.41;100.00;98101.06;4982056;28;20569;-72
2021/07/23 04:26:53;;;;;;;15.17;13.87;;;;;;;12.41;100.00;98099.25;4984876;28;20856;-72
2021/07/23 04:29:21;;;;;;;15.00;13.80;;;;;;;12.45;100.00;98092.56;4984318;28;20220;-71
2021/07/23 04:31:50;;;;;;;15.23;13.93;;;;;;;12.53;100.00;98098.84;4984842;28;20210;-71
2021/07/23 04:34:19;;;;;;;15.00;13.60;;;;;;;12.56;100.00;98111.78;4984044;28;20313;-74
2021/07/23 04:36:47;;;;;;;15.83;14.53;;;;;;;12.64;100.00;98102.94;4982241;28;20537;-71
2021/07/23 04:39:15;;;;;;;15.93;14.43;;;;;;;12.68;100.00;98110.38;4981139;28;20316;-72
2021/07/23 04:41:43;;;;;;;15.13;13.73;;;;;;;12.74;100.00;98111.53;4983976;28;20213;-69
2021/07/23 04:44:12;;;;;;;14.67;13.17;;;;;;;12.87;100.00;98110.94;4984526;28;20229;-69
2021/07/23 04:46:40;;;;;;;15.57;14.20;;;;;;;12.86;100.00;98118.09;4984868;28;20221;-71
2021/07/23 04:49:27;;;;;;;15.03;13.43;;;;;;;12.95;100.00;98120.72;4983730;28;20263;-70
2021/07/23 04:51:55;;;;;;;16.50;15.03;;;;;;;13.09;100.00;98119.13;4981198;28;20594;-73
2021/07/23 04:54:23;;;;;;;15.23;13.93;;;;;;;13.11;100.00;98117.13;4983006;28;20240;-72
2021/07/23 04:56:53;;;;;;;14.93;13.47;;;;;;;13.22;100.00;98121.19;4982443;28;20213;-73
2021/07/23 04:59:21;;;;;;;15.17;13.87;;;;;;;13.27;100.00;98121.50;4985299;28;20736;-73
2021/07/23 05:01:49;;;;;;;16.97;15.57;;;;;;;13.32;100.00;98119.94;4983948;28;20235;-71
2021/07/23 05:04:18;;;;;;;17.00;14.83;;;;;;;13.38;100.00;98120.22;4983338;28;20225;-72
2021/07/23 05:06:48;;;;;;;16.30;14.73;;;;;;;13.45;100.00;98119.38;4981715;28;20226;-71
2021/07/23 05:09:16;;;;;;;19.20;15.70;;;;;;;13.80;100.00;98120.72;4983919;28;20209;-70
2021/07/23 05:11:44;;;;;;;15.87;14.47;;;;;;;14.00;100.00;98116.50;4981218;28;20614;-71
2021/07/23 05:14:12;;;;;;;17.87;16.17;;;;;;;14.13;100.00;98125.72;4981638;28;20222;-72
2021/07/23 05:16:43;;;;;;;18.93;17.33;;;;;;;14.40;100.00;98126.09;4987546;28;20658;-71
2021/07/23 05:19:11;;;;;;;18.17;16.40;;;;;;;14.39;100.00;98116.41;4982234;28;20268;-69
2021/07/23 05:21:39;;;;;;;18.23;16.40;;;;;;;14.57;100.00;98122.19;4983729;28;20561;-72
2021/07/23 05:24:09;;;;;;;18.37;16.67;;;;;;;14.52;100.00;98119.25;4986329;28;20222;-71
2021/07/23 05:26:38;;;;;;;18.23;16.43;;;;;;;14.41;100.00;98117.06;4983883;28;20224;-70
2021/07/23 05:29:07;;;;;;;17.77;16.00;;;;;;;14.40;100.00;98116.22;4984234;28;20206;-73
2021/07/23 05:31:35;;;;;;;18.30;16.80;;;;;;;14.50;100.00;98121.28;4985367;28;20201;-73
2021/07/23 05:34:03;;;;;;;18.90;17.00;;;;;;;14.76;100.00;98117.28;4981795;28;20237;-73
2021/07/23 05:36:31;;;;;;;18.73;16.97;;;;;;;15.06;99.77;98114.53;4985195;28;20735;-69
2021/07/23 05:38:59;;;;;;;17.63;16.13;;;;;;;15.07;99.89;98120.72;4986125;28;20198;-70
2021/07/23 05:41:29;;;;;;;17.63;16.10;;;;;;;15.08;100.00;98111.69;4980538;28;20210;-71
2021/07/23 05:43:58;;;;;;;18.87;17.20;;;;;;;15.13;99.76;98115.44;4978356;28;20954;-71
2021/07/23 05:46:27;;;;;;;17.73;16.17;;;;;;;15.08;100.00;98122.38;4982260;28;20289;-70
2021/07/23 05:48:55;;;;;;;18.20;16.40;;;;;;;15.38;98.46;98115.03;4982974;28;20210;-68
2021/07/23 05:51:23;;;;;;;19.37;17.37;;;;;;;15.30;99.04;98113.31;4982954;28;20220;-69
2021/07/23 05:53:51;;;;;;;18.43;16.73;;;;;;;15.36;99.73;98126.94;4984263;28;20593;-69
2021/07/23 05:56:19;;;;;;;19.57;17.87;;;;;;;15.76;95.56;98117.41;4983532;28;20205;-69
2021/07/23 05:58:51;;;;;;;19.13;17.37;;;;;;;15.71;95.02;98111.81;4980609;28;20209;-67
2021/07/23 06:01:19;;;;;;;18.97;17.17;;;;;;;15.89;94.22;98119.38;4983095;28;20189;-70
2021/07/23 06:03:47;;;;;;;19.80;17.73;;;;;;;15.85;94.36;98115.41;4984216;28;20503;-70
2021/07/23 06:06:15;;;;;;;20.10;18.20;;;;;;;15.89;93.40;98119.38;4981415;28;20673;-71
2021/07/23 06:09:02;;;;;;;19.63;17.67;;;;;;;15.80;93.96;98123.19;4984010;28;20205;-70
2021/07/23 06:11:30;;;;;;;18.70;17.00;;;;;;;15.96;94.09;98118.59;4983598;28;20304;-68
2021/07/23 06:13:59;;;;;;;19.50;17.73;;;;;;;16.26;91.18;98118.34;4981064;28;20320;-69
2021/07/23 06:16:28;;;;;;;19.33;17.73;;;;;;;16.23;91.85;98111.53;4984624;28;20205;-69
2021/07/23 06:18:56;;;;;;;20.07;18.27;;;;;;;16.15;91.69;98123.25;4980893;28;20296;-69
2021/07/23 06:21:25;;;;;;;20.80;18.90;;;;;;;16.29;91.57;98115.28;4981285;28;20217;-68
2021/07/23 06:23:53;;;;;;;18.93;16.90;;;;;;;16.54;89.99;98120.97;4979021;28;20229;-71
2021/07/23 06:26:21;;;;;;;20.23;18.30;;;;;;;16.61;89.89;98111.09;4983502;28;20677;-68
2021/07/23 06:28:49;;;;;;;19.03;17.33;;;;;;;16.77;89.04;98104.56;4982619;28;20701;-69
2021/07/23 06:31:18;;;;;;;20.67;18.67;;;;;;;16.87;88.70;98106.88;4981596;28;20252;-68
2021/07/23 06:33:47;;;;;;;18.97;17.10;;;;;;;16.90;87.75;98105.66;4981774;28;20263;-70
2021/07/23 06:36:15;;;;;;;19.50;17.60;;;;;;;16.90;87.91;98103.78;4981089;28;20209;-68
2021/07/23 06:38:43;;;;;;;18.47;16.83;;;;;;;16.92;87.13;98111.63;4983725;28;20216;-68
2021/07/23 06:41:11;;;;;;;18.83;17.10;;;;;;;17.05;87.04;98111.69;4984294;28;20233;-68
2021/07/23 06:43:39;;;;;;;21.33;19.47;;;;;;;16.85;86.13;98105.41;4980544;28;20304;-69
2021/07/23 06:46:07;;;;;;;22.83;20.57;;;;;;;16.78;87.97;98098.19;4982834;28;20579;-69
2021/07/23 06:48:37;;;;;;;23.93;21.67;;;;;;;16.95;86.59;98105.88;4984553;28;20241;-69
2021/07/23 06:51:05;;;;;;;23.10;20.90;;;;;;;17.03;86.95;98110.22;4985057;28;20220;-69
2021/07/23 06:53:33;;;;;;;23.33;21.23;;;;;;;17.34;84.83;98111.50;4980991;28;20218;-68
2021/07/23 06:56:03;;;;;;;23.97;21.77;;;;;;;17.44;84.11;98111.09;4984181;28;20221;-67
2021/07/23 06:58:31;;;;;;;23.83;21.67;;;;;;;17.55;83.96;98113.16;4981089;28;20205;-69
2021/07/23 07:01:04;;;;;;;26.90;24.20;;;;;;;17.65;83.74;98112.75;4983457;28;20336;-68
2021/07/23 07:03:32;;;;;;;27.77;25.03;;;;;;;18.07;80.41;98109.84;4981687;28;20247;-68
2021/07/23 07:06:03;;;;;;;22.83;20.47;;;;;;;18.06;81.42;98105.53;4982148;28;20208;-69
2021/07/23 07:08:31;;;;;;;22.13;20.03;;;;;;;18.05;81.78;98109.22;4986469;28;20456;-69
2021/07/23 07:11:02;;;;;;;22.97;20.77;;;;;;;18.46;79.31;98109.94;4983663;28;20669;-69
2021/07/23 07:13:30;;;;;;;23.00;20.93;;;;;;;18.50;78.52;98106.63;4980381;28;20210;-68
2021/07/23 07:15:58;;;;;;;21.67;19.57;;;;;;;18.59;78.10;98109.06;4982239;28;20430;-69
2021/07/23 07:18:26;;;;;;;20.40;18.50;;;;;;;18.47;79.13;98106.19;4982051;28;20224;-69
2021/07/23 07:20:55;;;;;;;20.73;18.83;;;;;;;18.57;78.44;98111.13;4981382;28;20905;-68
2021/07/23 07:23:24;;;;;;;19.97;18.13;;;;;;;18.62;77.61;98106.78;4983978;28;20622;-68
2021/07/23 07:25:52;;;;;;;21.40;19.47;;;;;;;18.66;77.34;98109.84;4984509;28;20221;-68
2021/07/23 07:28:20;;;;;;;22.17;20.03;;;;;;;18.89;76.50;98111.19;4981619;28;20433;-67
2021/07/23 07:30:58;;;;;;;19.97;18.13;;;;;;;19.27;74.95;98110.34;4983746;28;20209;-68
2021/07/23 07:33:28;;;;;;;21.87;19.90;;;;;;;19.40;72.86;98109.44;4979020;28;20300;-67
2021/07/23 07:35:56;;;;;;;20.43;18.60;;;;;;;19.24;73.84;98116.16;4984850;28;20666;-66
2021/07/23 07:38:25;;;;;;;18.10;16.43;;;;;;;19.44;72.91;98113.34;4981043;28;20214;-67
2021/07/23 07:40:54;;;;;;;20.60;18.90;;;;;;;19.51;71.75;98108.72;4980908;28;20205;-67
2021/07/23 07:43:22;;;;;;;19.13;17.27;;;;;;;19.72;71.62;98112.06;4985619;28;20226;-67
2021/07/23 07:45:53;;;;;;;18.50;16.80;;;;;;;19.86;72.11;98103.88;4980964;28;20296;-67
2021/07/23 07:48:21;;;;;;;18.50;16.80;;;;;;;19.88;71.65;98109.84;4984915;28;20232;-65
2021/07/23 07:50:49;;;;;;;18.80;15.03;;;;;;;20.17;69.68;98113.72;4983254;28;20606;-66
2021/07/23 07:53:17;;;;;;;17.87;16.17;;;;;;;20.24;68.90;98105.59;4978466;28;20241;-64
2021/07/23 07:55:47;;;;;;;18.10;16.40;;;;;;;20.34;66.75;98103.19;4984926;28;20568;-68
2021/07/23 07:58:15;;;;;;;17.13;15.20;;;;;;;20.46;66.32;98100.56;4977871;28;20556;-69
2021/07/23 08:00:43;;;;;;;17.37;15.57;;;;;;;20.56;67.84;98099.19;4981749;28;20205;-67
2021/07/23 08:03:11;;;;;;;17.47;15.83;;;;;;;20.74;67.20;98098.34;4986625;28;20493;-65
2021/07/23 08:05:39;;;;;;;17.17;15.57;;;;;;;20.74;65.96;98095.66;4981218;28;20249;-66
2021/07/23 08:08:10;;;;;;;16.10;14.60;;;;;;;20.85;65.50;98096.78;4982232;28;20330;-67
2021/07/23 08:10:45;;;;;;;15.87;14.40;;;;;;;21.10;64.29;98093.94;4982243;28;20216;-68
2021/07/23 08:13:15;;;;;;;14.93;13.63;;;;;;;21.22;63.04;98097.50;4986176;28;20216;-67
2021/07/23 08:15:44;;;;;;;15.97;14.33;;;;;;;21.37;61.83;98098.94;4981773;28;20210;-68
2021/07/23 08:18:13;;;;;;;16.37;14.93;;;;;;;21.40;62.19;98093.91;4979890;28;20209;-66
2021/07/23 08:20:42;;;;;;;16.40;14.80;;;;;;;21.44;60.77;98093.44;4984537;28;20210;-67
2021/07/23 08:23:10;;;;;;;17.43;15.60;;;;;;;21.40;62.71;98093.09;4986644;28;20285;-65
2021/07/23 08:25:38;;;;;;;16.77;15.17;;;;;;;21.43;61.44;98097.19;4981006;28;20703;-67
2021/07/23 08:28:06;;;;;;;17.70;15.97;;;;;;;21.86;59.14;98090.69;4981258;28;20230;-66
2021/07/23 08:30:36;;;;;;;16.90;14.43;;;;;;;21.81;60.72;98087.88;4980520;28;20237;-68
2021/07/23 08:33:07;;;;;;;15.53;14.23;;;;;;;21.86;59.94;98093.38;4978674;28;20954;-68
2021/07/23 08:35:37;;;;;;;15.53;14.13;;;;;;;22.10;60.28;98087.94;4985600;28;20292;-67
2021/07/23 08:38:05;;;;;;;15.60;14.00;;;;;;;22.00;59.84;98082.34;4989070;28;20574;-68
2021/07/23 08:40:33;;;;;;;14.67;13.37;;;;;;;21.93;60.58;98085.97;4987818;28;20280;-68
2021/07/23 08:43:02;;;;;;;15.43;14.13;;;;;;;21.88;60.00;98080.47;4985439;28;20213;-67
2021/07/23 08:45:31;;;;;;;13.97;12.57;;;;;;;22.07;59.91;98091.97;4986711;28;20245;-66
2021/07/23 08:48:01;;;;;;;14.57;13.47;;;;;;;22.39;57.97;98086.16;4983643;28;20227;-68
2021/07/23 08:50:29;;;;;;;15.83;13.67;;;;;;;22.30;59.15;98079.47;4983103;28;20709;-68
2021/07/23 08:52:58;;;;;;;13.93;12.73;;;;;;;22.46;58.73;98077.13;4983273;28;20214;-69
2021/07/23 08:55:27;;;;;;;13.67;12.47;;;;;;;22.93;55.71;98079.63;4983287;28;20549;-69
2021/07/23 08:57:55;;;;;;;13.67;12.57;;;;;;;22.93;55.97;98082.31;4983531;28;20572;-68
2021/07/23 09:00:23;;;;;;;13.67;12.50;;;;;;;22.95;54.74;98087.50;4983977;28;20539;-67
2021/07/23 09:02:53;;;;;;;15.20;13.50;;;;;;;22.77;54.68;98081.22;4985604;28;20715;-68
2021/07/23 09:05:26;;;;;;;13.93;12.63;;;;;;;22.79;54.36;98081.81;4982899;28;20236;-68
2021/07/23 09:07:54;;;;;;;15.90;12.67;;;;;;;22.96;52.94;98083.75;4978572;28;20205;-67
2021/07/23 09:10:24;;;;;;;14.47;12.97;;;;;;;22.95;53.33;98088.31;4980799;28;20229;-68
2021/07/23 09:12:53;;;;;;;13.67;12.30;;;;;;;23.17;50.09;98084.91;4986580;28;20300;-67
2021/07/23 09:15:23;;;;;;;13.93;12.63;;;;;;;23.20;51.18;98083.59;4986920;28;20362;-68
2021/07/23 09:17:52;;;;;;;14.30;12.93;;;;;;;23.32;50.72;98083.56;4987231;28;20623;-65
2021/07/23 09:20:27;;;;;;;15.17;13.37;;;;;;;23.40;51.25;98075.03;4979050;28;20212;-69
2021/07/23 09:22:56;;;;;;;12.87;11.60;;;;;;;23.69;48.72;98075.78;4985002;28;20387;-66
2021/07/23 09:25:51;;;;;;;12.97;11.87;;;;;;;23.91;49.54;98076.88;4982757;28;20378;-68
2021/07/23 09:28:24;;;;;;;13.73;12.10;;;;;;;23.91;50.14;98074.19;4938745;28;20231;-65
2021/07/23 09:30:53;;;;;;;13.77;12.47;;;;;;;24.02;48.53;98070.56;4985678;28;20205;-68
2021/07/23 09:33:32;;;;;;;12.47;11.10;;;;;;;24.09;48.22;98073.09;4984634;28;20216;-67
2021/07/23 09:36:03;;;;;;;13.47;12.27;;;;;;;24.27;45.20;98070.06;4981813;28;20818;-70
2021/07/23 09:38:39;;;;;;;12.93;11.37;;;;;;;24.10;46.05;98069.31;4988464;28;20210;-69
2021/07/23 09:41:10;;;;;;;11.77;10.53;;;;;;;24.18;44.46;98068.06;4984944;28;20785;-70
2021/07/23 09:43:40;;;;;;;12.80;11.80;;;;;;;24.25;44.21;98066.00;4985904;28;20241;-70
2021/07/23 09:46:33;;;;;;;12.00;10.90;;;;;;;24.30;44.48;98057.09;4982050;28;20213;-70
2021/07/23 09:49:19;;;;;;;13.10;11.83;;;;;;;24.49;46.72;98044.88;4985001;28;20398;-70
2021/07/23 09:51:50;;;;;;;11.27;10.27;;;;;;;24.68;44.86;98048.06;4984040;28;20220;-70
2021/07/23 09:54:19;;;;;;;11.27;10.40;;;;;;;24.75;44.04;98047.06;4983305;28;20287;-70
2021/07/23 09:56:48;;;;;;;12.90;11.70;;;;;;;25.02;43.25;98044.34;4984903;28;20290;-69
2021/07/23 09:59:17;;;;;;;12.77;11.47;;;;;;;24.67;44.28;98046.44;4986862;28;20206;-70
2021/07/23 10:01:47;;;;;;;11.63;10.43;;;;;;;24.88;42.93;98046.66;4983053;28;20667;-69
2021/07/23 10:04:21;;;;;;;12.53;11.40;;;;;;;24.93;43.02;98038.56;4984627;28;20698;-69
2021/07/23 10:06:57;;;;;;;11.00;10.10;;;;;;;24.84;43.52;98034.69;4982318;28;20744;-70
2021/07/23 10:09:28;;;;;;;11.47;10.50;;;;;;;24.65;43.08;98035.03;4986924;28;20218;-71
2021/07/23 10:11:56;;;;;;;12.47;11.17;;;;;;;24.24;43.88;98034.56;4987728;28;20329;-69
2021/07/23 10:14:27;;;;;;;11.50;10.37;;;;;;;24.20;44.79;98044.25;4982660;28;20229;-70
2021/07/23 10:16:56;;;;;;;11.00;10.00;;;;;;;24.32;43.74;98028.72;4986249;28;20295;-71
2021/07/23 10:19:25;;;;;;;10.83;9.93;;;;;;;24.48;43.04;98031.59;4985143;28;20244;-72
2021/07/23 10:21:58;;;;;;;11.37;10.40;;;;;;;24.51;44.16;98023.78;4985736;28;20205;-69
2021/07/23 10:24:31;;;;;;;10.03;9.23;;;;;;;24.76;44.75;98022.41;4983516;28;20597;-70
2021/07/23 10:26:59;;;;;;;10.37;9.40;;;;;;;25.17;43.36;98018.44;4984874;28;20212;-71
2021/07/23 10:29:45;;;;;;;13.27;10.23;;;;;;;24.98;43.61;98008.78;4985426;28;20237;-70
2021/07/23 10:32:32;;;;;;;10.57;9.77;;;;;;;24.95;42.65;98014.72;4990289;28;20248;-70
2021/07/23 10:35:02;;;;;;;11.17;10.03;;;;;;;25.04;42.67;98015.09;4979621;28;20262;-69
2021/07/23 10:37:54;;;;;;;10.10;9.30;;;;;;;25.50;40.46;98008.41;4984879;28;21912;-69
2021/07/23 10:40:23;;;;;;;11.33;10.23;;;;;;;25.54;40.52;98002.19;4983002;28;20463;-71
2021/07/23 10:42:51;;;;;;;11.23;10.27;;;;;;;25.49;41.76;98001.34;4984410;28;20256;-70
2021/07/23 10:45:20;;;;;;;11.50;10.50;;;;;;;25.78;41.46;98009.09;4990168;28;20224;-70
2021/07/23 10:47:49;;;;;;;11.00;9.90;;;;;;;25.87;41.87;98004.81;4983399;28;20988;-70
2021/07/23 10:50:49;;;;;;;11.20;10.20;;;;;;;26.36;40.32;97994.72;4980038;28;20241;-70
2021/07/23 10:53:37;;;;;;;11.13;10.07;;;;;;;26.51;42.25;97986.59;4976968;28;20208;-69
2021/07/23 10:56:05;;;;;;;10.30;9.43;;;;;;;27.06;41.01;97990.75;4981992;28;20654;-69
2021/07/23 10:58:34;;;;;;;11.13;9.87;;;;;;;27.44;39.43;97992.06;4987640;28;20328;-70
2021/07/23 11:01:03;;;;;;;11.53;10.17;;;;;;;27.78;37.34;97990.66;4982481;28;20246;-71
2021/07/23 11:04:02;;;;;;;10.43;9.43;;;;;;;27.97;38.85;97979.97;4981103;28;20895;-69
2021/07/23 11:06:38;;;;;;;11.63;10.43;;;;;;;28.66;34.67;97976.63;4981989;28;20224;-69
2021/07/23 11:09:09;;;;;;;10.70;9.80;;;;;;;27.95;37.03;97974.00;4982426;28;20581;-71
2021/07/23 11:11:37;;;;;;;11.33;10.33;;;;;;;28.86;34.95;97975.69;4983969;28;20201;-71
2021/07/23 11:14:15;;;;;;;10.87;9.97;;;;;;;29.21;34.97;97963.94;4976593;28;20242;-68
2021/07/23 11:16:43;;;;;;;10.60;9.63;;;;;;;29.16;34.70;97973.81;4981287;28;20290;-71
2021/07/23 11:19:18;;;;;;;10.90;9.77;;;;;;;29.63;35.71;97967.91;4982669;28;20212;-69
2021/07/23 11:21:48;;;;;;;10.77;9.27;;;;;;;29.99;34.05;97956.53;4980106;28;20217;-70
2021/07/23 11:24:17;;;;;;;10.93;10.03;;;;;;;29.50;34.44;97971.31;4986526;28;20234;-71
2021/07/23 11:26:51;;;;;;;10.80;9.77;;;;;;;29.20;33.59;97967.78;4984432;28;20206;-71